Time;durP1;ratioP1;P1;durP2;ratioP2;P2;SDS_P1;SDS_P2;PMS_P1;PMS_P2;Temp;Humidity;BMP_temperature;BMP_pressure;BME280_temperature;BME280_humidity;BME280_pressure;Samples;Min_cycle;Max_cycle;Signal;HPM_P1;HPM_P2
2021/12/12 00:01:28;;;;;;;14.90;13.30;;;;;;;7.88;83.74;93443.31;5039314;28;20245;-65
2021/12/12 00:04:04;;;;;;;19.33;17.40;;;;;;;7.95;82.74;93436.41;5042431;28;20229;-66
2021/12/12 00:06:34;;;;;;;20.90;18.80;;;;;;;7.83;83.01;93471.81;5040945;28;20213;-66
2021/12/12 00:09:11;;;;;;;25.27;22.53;;;;;;;7.69;82.90;93494.28;5035814;28;20234;-68
2021/12/12 00:11:37;;;;;;;24.77;22.23;;;;;;;7.73;82.79;93500.81;5036728;28;20246;-68
2021/12/12 00:14:14;;;;;;;24.83;22.20;;;;;;;7.62;83.69;93536.03;5035724;28;20225;-66
2021/12/12 00:16:41;;;;;;;21.77;19.47;;;;;;;7.65;84.30;93534.88;5033312;28;20201;-67
2021/12/12 00:19:08;;;;;;;18.47;16.47;;;;;;;7.76;83.35;93513.56;5039401;28;20206;-67
2021/12/12 00:21:35;;;;;;;14.50;13.10;;;;;;;7.69;82.64;93521.25;5031332;28;20245;-65
2021/12/12 00:24:03;;;;;;;14.33;12.87;;;;;;;7.63;83.47;93516.72;5030201;28;20222;-66
2021/12/12 00:26:28;;;;;;;13.87;12.47;;;;;;;7.64;83.85;93515.72;5025464;28;20306;-66
2021/12/12 00:28:54;;;;;;;14.97;13.37;;;;;;;7.63;83.96;93524.56;5033575;28;20229;-65
2021/12/12 00:31:23;;;;;;;13.57;12.27;;;;;;;7.69;83.73;93531.72;5031836;28;20225;-69
2021/12/12 00:33:54;;;;;;;12.63;11.43;;;;;;;7.66;82.64;93536.50;5038467;28;20225;-65
2021/12/12 00:36:21;;;;;;;9.40;8.50;;;;;;;7.73;82.29;93553.97;5036154;28;20474;-69
2021/12/12 00:38:56;;;;;;;8.50;7.70;;;;;;;7.68;81.75;93555.47;5032859;28;20332;-69
2021/12/12 00:41:29;;;;;;;10.07;8.53;;;;;;;7.61;82.91;93552.69;5034301;28;20234;-66
2021/12/12 00:43:58;;;;;;;9.07;8.27;;;;;;;7.60;82.23;93556.31;5033874;28;20230;-66
2021/12/12 00:46:24;;;;;;;9.33;8.37;;;;;;;7.69;82.43;93567.56;5034725;28;20258;-66
2021/12/12 00:48:50;;;;;;;8.33;7.50;;;;;;;7.69;81.16;93559.69;5031154;28;20252;-67
2021/12/12 00:51:21;;;;;;;8.80;7.90;;;;;;;7.57;81.49;93563.69;5035260;28;20229;-66
2021/12/12 00:53:47;;;;;;;7.90;7.10;;;;;;;7.58;82.43;93560.06;5038137;28;20228;-66
2021/12/12 00:56:13;;;;;;;6.57;5.87;;;;;;;7.54;81.45;93571.84;5035492;28;20281;-68
2021/12/12 00:58:39;;;;;;;6.07;4.43;;;;;;;7.55;80.45;93579.53;5035949;28;20217;-68
2021/12/12 01:01:10;;;;;;;5.03;4.47;;;;;;;7.50;80.41;93580.03;5032945;28;20214;-66
2021/12/12 01:03:44;;;;;;;6.43;5.70;;;;;;;7.44;81.20;93590.38;5032871;28;20233;-65
2021/12/12 01:06:12;;;;;;;6.53;5.00;;;;;;;7.44;81.44;93593.78;5038478;28;20272;-69
2021/12/12 01:08:41;;;;;;;7.70;5.80;;;;;;;7.38;81.41;93597.09;5039686;28;20224;-67
2021/12/12 01:11:33;;;;;;;5.13;4.60;;;;;;;7.42;81.81;93597.56;5035628;28;20228;-67
2021/12/12 01:14:00;;;;;;;5.03;4.50;;;;;;;7.32;81.21;93589.88;5035880;28;20257;-68
2021/12/12 01:16:30;;;;;;;4.80;4.30;;;;;;;7.27;81.48;93595.63;5034035;28;20242;-67
2021/12/12 01:19:05;;;;;;;6.47;5.40;;;;;;;7.21;81.22;93587.63;5030867;28;20369;-66
2021/12/12 01:21:41;;;;;;;5.53;5.13;;;;;;;7.37;80.96;93599.84;5035488;28;20545;-68
2021/12/12 01:24:11;;;;;;;6.73;6.03;;;;;;;7.29;81.46;93587.59;5037217;28;20213;-69
2021/12/12 01:26:38;;;;;;;6.70;5.97;;;;;;;7.28;81.45;93589.41;5038426;28;20307;-68
2021/12/12 01:29:05;;;;;;;6.53;5.80;;;;;;;7.35;81.49;93602.66;5035208;28;20217;-67
2021/12/12 01:31:33;;;;;;;6.40;5.90;;;;;;;7.31;80.69;93603.97;5041833;28;20210;-68
2021/12/12 01:34:13;;;;;;;6.93;5.77;;;;;;;7.24;81.00;93593.34;5035310;28;20229;-68
2021/12/12 01:39:30;;;;;;;6.10;5.60;;;;;;;7.24;81.47;93567.22;5035824;28;20285;-66
2021/12/12 01:42:19;;;;;;;6.37;5.77;;;;;;;7.21;81.91;93572.75;5035878;28;20217;-66
2021/12/12 01:44:50;;;;;;;6.23;5.63;;;;;;;7.15;81.77;93585.69;5033954;28;20213;-67
2021/12/12 01:47:25;;;;;;;6.80;6.20;;;;;;;7.12;82.51;93591.25;5035002;28;20286;-66
2021/12/12 01:49:55;;;;;;;6.43;5.93;;;;;;;7.09;82.07;93602.03;5032145;28;20292;-66
2021/12/12 01:52:24;;;;;;;8.07;6.53;;;;;;;7.13;82.04;93613.78;5037535;28;20209;-66
2021/12/12 01:54:54;;;;;;;7.57;6.87;;;;;;;7.12;82.17;93631.28;5034012;28;20249;-68
2021/12/12 01:57:27;;;;;;;7.53;6.90;;;;;;;7.07;82.01;93644.00;5040003;28;20303;-66
2021/12/12 01:59:57;;;;;;;8.93;8.10;;;;;;;7.28;79.98;93631.25;5042809;28;20244;-66
2021/12/12 02:02:26;;;;;;;8.40;7.60;;;;;;;7.12;80.37;93599.09;5040663;28;20230;-66
2021/12/12 02:05:01;;;;;;;8.67;7.87;;;;;;;6.78;82.20;93603.50;5044564;28;20206;-66
2021/12/12 02:07:30;;;;;;;9.87;8.27;;;;;;;6.74;82.53;93617.88;5043344;28;20216;-66
2021/12/12 02:10:16;;;;;;;9.20;7.93;;;;;;;6.86;82.00;93639.28;5035721;28;20281;-66
2021/12/12 02:12:42;;;;;;;9.20;8.30;;;;;;;6.93;81.00;93624.59;5037688;28;20240;-68
2021/12/12 02:15:12;;;;;;;8.83;8.03;;;;;;;6.85;80.84;93601.06;5041897;28;20217;-70
2021/12/12 02:17:44;;;;;;;7.77;6.97;;;;;;;6.83;81.54;93614.28;5040403;28;20240;-67
2021/12/12 02:20:22;;;;;;;7.33;6.63;;;;;;;6.85;81.39;93643.69;5037173;28;20245;-66
2021/12/12 02:23:18;;;;;;;6.90;6.27;;;;;;;6.88;80.87;93624.25;5036884;28;20218;-67
2021/12/12 02:36:49;;;;;;;5.00;4.53;;;;;;;6.49;79.87;93658.81;5040288;28;20237;-66
2021/12/12 02:39:16;;;;;;;4.13;3.73;;;;;;;6.57;79.42;93652.78;5037962;28;20226;-68
2021/12/12 02:41:56;;;;;;;4.10;3.27;;;;;;;6.59;79.65;93674.34;5037359;28;20225;-67
2021/12/12 02:44:28;;;;;;;4.60;3.30;;;;;;;6.65;79.16;93673.69;5040788;28;20222;-65
2021/12/12 02:46:58;;;;;;;3.40;3.13;;;;;;;6.60;78.31;93662.91;5040454;28;20225;-66
2021/12/12 02:52:14;;;;;;;4.20;3.53;;;;;;;6.46;79.38;93660.94;5041335;28;20232;-67
2021/12/12 02:54:40;;;;;;;4.60;4.03;;;;;;;6.43;79.53;93674.31;5038617;28;20233;-66
2021/12/12 02:57:07;;;;;;;3.60;3.30;;;;;;;6.47;79.28;93671.22;5034758;28;20245;-66
2021/12/12 02:59:37;;;;;;;3.33;3.03;;;;;;;6.49;78.08;93671.88;5039865;28;20226;-69
2021/12/12 03:02:10;;;;;;;3.03;2.80;;;;;;;6.43;78.44;93689.97;5056079;28;20219;-67
2021/12/12 03:04:35;;;;;;;3.43;2.83;;;;;;;6.37;78.53;93686.22;5035492;28;20197;-70
2021/12/12 03:07:04;;;;;;;2.73;2.43;;;;;;;6.31;78.11;93705.13;5035064;28;20237;-67
2021/12/12 03:09:38;;;;;;;3.20;2.00;;;;;;;6.28;76.87;93694.97;5035932;28;20226;-67
2021/12/12 03:12:09;;;;;;;2.50;2.30;;;;;;;6.31;76.51;93686.84;5039900;28;20222;-68
2021/12/12 03:14:35;;;;;;;2.77;1.93;;;;;;;6.18;77.86;93706.38;5038897;28;20244;-67
2021/12/12 03:17:05;;;;;;;1.70;1.43;;;;;;;6.26;78.00;93723.06;5037613;28;20233;-67
2021/12/12 03:19:31;;;;;;;1.47;1.37;;;;;;;6.24;75.36;93722.38;5042234;28;20206;-66
2021/12/12 03:21:57;;;;;;;2.53;1.43;;;;;;;6.03;74.80;93704.50;5034668;28;20217;-67
2021/12/12 03:24:25;;;;;;;1.97;1.30;;;;;;;5.95;75.36;93697.47;5038150;28;20290;-68
2021/12/12 03:26:55;;;;;;;1.50;1.40;;;;;;;5.94;77.12;93717.53;5038214;28;20221;-66
2021/12/12 03:29:21;;;;;;;1.40;1.30;;;;;;;5.94;77.33;93738.41;5036639;28;20226;-69
2021/12/12 03:31:57;;;;;;;1.60;1.50;;;;;;;5.85;77.35;93754.94;5037185;28;20206;-66
2021/12/12 03:34:27;;;;;;;1.40;1.30;;;;;;;5.88;75.57;93756.41;5038178;28;20251;-68
2021/12/12 03:36:53;;;;;;;1.60;1.50;;;;;;;5.93;76.52;93772.44;5036341;28;20230;-66
2021/12/12 03:39:27;;;;;;;1.70;1.57;;;;;;;5.95;75.90;93770.53;5041527;28;20222;-66
2021/12/12 03:41:56;;;;;;;1.33;1.23;;;;;;;5.91;75.75;93743.91;5036089;28;20225;-68
2021/12/12 03:44:27;;;;;;;1.43;1.33;;;;;;;5.84;75.82;93758.53;5038884;28;20222;-70
2021/12/12 03:46:57;;;;;;;2.27;1.60;;;;;;;5.70;76.40;93788.59;5032280;28;20264;-67
2021/12/12 03:49:23;;;;;;;1.80;1.70;;;;;;;5.82;75.95;93794.38;5044746;28;20202;-66
2021/12/12 03:51:50;;;;;;;2.60;1.73;;;;;;;5.81;75.98;93786.72;5035858;28;20256;-70
2021/12/12 03:54:17;;;;;;;2.13;1.50;;;;;;;5.83;74.53;93766.53;5036433;28;20222;-67
2021/12/12 03:56:44;;;;;;;1.70;1.60;;;;;;;5.68;75.82;93766.25;5034789;28;20234;-68
2021/12/12 03:59:11;;;;;;;1.80;1.70;;;;;;;5.64;76.76;93796.19;5038170;28;20229;-68
2021/12/12 04:01:44;;;;;;;1.50;1.40;;;;;;;5.51;76.93;93794.81;5036273;28;20288;-66
2021/12/12 04:04:14;;;;;;;2.33;1.50;;;;;;;5.63;77.04;93798.00;5038101;28;20229;-66
2021/12/12 04:06:40;;;;;;;1.77;1.57;;;;;;;5.79;76.15;93818.16;5035170;28;20225;-68
2021/12/12 04:09:09;;;;;;;1.83;1.43;;;;;;;5.65;75.27;93843.00;5033830;28;20264;-67
2021/12/12 04:11:40;;;;;;;1.63;1.53;;;;;;;5.59;75.83;93812.31;5037915;28;20226;-67
2021/12/12 04:14:07;;;;;;;1.73;1.53;;;;;;;5.52;76.35;93796.44;5037458;28;20221;-66
2021/12/12 04:16:35;;;;;;;1.60;1.50;;;;;;;5.57;77.02;93822.06;5037677;28;20283;-65
2021/12/12 04:19:01;;;;;;;1.70;1.50;;;;;;;5.57;76.97;93823.88;5036133;28;20254;-69
2021/12/12 04:21:28;;;;;;;1.83;1.40;;;;;;;5.59;76.70;93863.66;5037625;28;20302;-67
2021/12/12 04:23:56;;;;;;;1.87;1.40;;;;;;;5.56;75.37;93854.34;5031668;28;20214;-67
2021/12/12 04:26:28;;;;;;;1.60;1.50;;;;;;;5.47;75.43;93835.19;5034609;28;20280;-67
2021/12/12 04:29:25;;;;;;;2.03;1.80;;;;;;;5.45;76.72;93864.97;5034346;28;20213;-67
2021/12/12 04:31:57;;;;;;;2.43;2.23;;;;;;;5.49;75.76;93848.06;4978530;28;20212;-68
2021/12/12 04:34:31;;;;;;;1.77;1.60;;;;;;;5.52;74.77;93842.56;4962277;28;20216;-66
2021/12/12 04:37:00;;;;;;;1.87;1.77;;;;;;;5.44;75.17;93866.75;4962554;28;20231;-69
2021/12/12 04:39:33;;;;;;;1.63;1.53;;;;;;;5.40;75.26;93883.69;4979390;28;20219;-69
2021/12/12 04:42:04;;;;;;;1.60;1.50;;;;;;;5.30;73.78;93881.13;4981259;28;20999;-68
2021/12/12 04:44:35;;;;;;;1.80;1.70;;;;;;;5.31;75.29;93893.19;4963456;28;20242;-69
2021/12/12 04:49:55;;;;;;;2.17;1.53;;;;;;;5.24;76.65;93878.31;4979335;28;20270;-70
2021/12/12 04:52:37;;;;;;;1.60;1.50;;;;;;;5.30;77.25;93915.03;4981357;28;20208;-67
2021/12/12 04:55:25;;;;;;;1.73;1.63;;;;;;;5.39;76.60;93934.16;4964288;28;20243;-68
2021/12/12 04:58:13;;;;;;;2.00;1.80;;;;;;;5.29;74.37;93882.13;4964743;28;20302;-71
2021/12/12 05:01:07;;;;;;;1.60;1.50;;;;;;;5.21;76.11;93883.78;4980496;28;20239;-67
2021/12/12 05:04:01;;;;;;;2.00;1.80;;;;;;;5.13;76.26;93921.00;4962407;28;20239;-68
2021/12/12 05:06:30;;;;;;;1.63;1.20;;;;;;;5.12;75.07;93931.59;4979501;28;20239;-67
2021/12/12 05:09:05;;;;;;;1.20;1.10;;;;;;;5.08;75.25;93944.09;5010116;28;20249;-71
2021/12/12 05:11:51;;;;;;;1.10;1.00;;;;;;;5.11;75.54;93956.03;5032588;28;20288;-67
2021/12/12 05:14:23;;;;;;;1.10;1.00;;;;;;;4.96;72.90;93953.88;5036786;28;20245;-67
2021/12/12 05:17:01;;;;;;;1.33;0.90;;;;;;;5.05;73.46;93950.41;5037852;28;20216;-67
2021/12/12 05:19:29;;;;;;;0.97;0.97;;;;;;;5.03;73.58;93965.38;5039725;28;20510;-69
2021/12/12 05:22:09;;;;;;;1.30;1.00;;;;;;;4.81;72.55;93974.38;5036669;28;20246;-69
2021/12/12 05:24:36;;;;;;;1.20;1.03;;;;;;;4.77;72.39;93961.78;5039224;28;20217;-68
2021/12/12 05:27:18;;;;;;;1.20;1.10;;;;;;;4.76;72.50;93987.00;5038642;28;20213;-68
2021/12/12 05:29:55;;;;;;;1.60;1.20;;;;;;;4.69;72.93;93969.47;5033184;28;20218;-67
2021/12/12 05:32:22;;;;;;;0.70;0.70;;;;;;;4.57;72.49;93981.81;5035486;28;20230;-68
2021/12/12 05:34:50;;;;;;;0.80;0.80;;;;;;;4.54;72.27;93976.91;5039222;28;20215;-69
2021/12/12 05:37:17;;;;;;;1.47;0.90;;;;;;;4.60;72.38;93969.38;5042084;28;20198;-67
2021/12/12 05:39:43;;;;;;;0.80;0.80;;;;;;;4.56;72.51;93986.22;5039768;28;20233;-67
2021/12/12 05:42:11;;;;;;;0.80;0.80;;;;;;;4.26;72.11;94000.25;5037393;28;20215;-66
2021/12/12 05:44:37;;;;;;;0.80;0.77;;;;;;;4.32;72.47;94009.28;5040536;28;20230;-68
2021/12/12 05:47:05;;;;;;;0.80;0.80;;;;;;;4.22;72.36;94019.66;5034169;28;20232;-65
2021/12/12 05:49:32;;;;;;;1.10;0.87;;;;;;;4.28;72.16;94019.16;5041227;28;20198;-65
2021/12/12 05:52:01;;;;;;;0.70;0.70;;;;;;;4.31;71.94;94037.09;5047693;28;20232;-65
2021/12/12 05:54:28;;;;;;;0.80;0.80;;;;;;;4.28;71.60;94045.16;5040914;28;20240;-65
2021/12/12 05:56:55;;;;;;;1.00;0.90;;;;;;;4.27;71.87;94050.50;5038948;28;20218;-65
2021/12/12 05:59:21;;;;;;;0.70;0.70;;;;;;;4.43;71.42;94050.75;5036244;28;20306;-65
2021/12/12 06:01:48;;;;;;;0.80;0.80;;;;;;;4.39;71.22;94052.00;5033939;28;20222;-66
2021/12/12 06:04:17;;;;;;;0.90;0.90;;;;;;;4.37;72.00;94049.53;5034543;28;20203;-67
2021/12/12 06:06:44;;;;;;;1.33;0.90;;;;;;;4.33;71.19;94053.38;5038963;28;20298;-66
2021/12/12 06:09:12;;;;;;;1.57;0.87;;;;;;;4.37;70.90;94059.13;5035005;28;20210;-70
2021/12/12 06:11:42;;;;;;;1.53;0.97;;;;;;;4.26;70.40;94067.91;5030569;28;20280;-66
2021/12/12 06:14:08;;;;;;;1.07;0.77;;;;;;;4.11;70.29;94048.44;5038863;28;20213;-66
2021/12/12 06:16:35;;;;;;;2.13;1.00;;;;;;;4.02;71.65;94062.28;5039364;28;20206;-67
2021/12/12 06:19:21;;;;;;;0.80;0.80;;;;;;;3.93;71.72;94048.31;5036864;28;20233;-68
2021/12/12 06:21:53;;;;;;;0.87;0.83;;;;;;;4.04;71.82;94049.97;5039978;28;20253;-65
2021/12/12 06:24:21;;;;;;;1.50;0.80;;;;;;;3.84;71.96;94057.72;5040258;28;20217;-66
2021/12/12 06:26:47;;;;;;;1.90;0.90;;;;;;;3.85;72.11;94053.34;5037529;28;20232;-68
2021/12/12 06:29:13;;;;;;;0.80;0.80;;;;;;;3.90;72.29;94062.41;5041830;28;20281;-67
2021/12/12 06:31:42;;;;;;;2.30;1.00;;;;;;;3.83;72.60;94079.50;5031651;28;20194;-72
2021/12/12 06:34:08;;;;;;;0.93;0.90;;;;;;;4.00;72.90;94100.59;5032687;28;20214;-68
2021/12/12 06:36:35;;;;;;;1.10;1.00;;;;;;;4.14;73.30;94114.06;5038314;28;20297;-68
2021/12/12 06:39:03;;;;;;;1.10;1.00;;;;;;;4.19;74.21;94118.81;5034267;28;20230;-67
2021/12/12 06:41:29;;;;;;;1.23;1.00;;;;;;;4.33;73.71;94110.66;5038683;28;20230;-66
2021/12/12 06:43:56;;;;;;;1.20;1.10;;;;;;;4.22;72.10;94108.16;5037941;28;20385;-67
2021/12/12 06:46:23;;;;;;;1.20;1.00;;;;;;;4.25;70.72;94109.66;5036247;28;20194;-66
2021/12/12 06:48:49;;;;;;;1.10;1.00;;;;;;;4.22;71.30;94115.13;5031797;28;20218;-63
2021/12/12 06:51:15;;;;;;;0.90;0.90;;;;;;;4.11;70.65;94122.09;5031244;28;20234;-66
2021/12/12 06:53:44;;;;;;;1.47;1.07;;;;;;;4.28;71.40;94132.84;5035688;28;20217;-65
2021/12/12 06:56:11;;;;;;;1.00;0.97;;;;;;;4.12;71.18;94131.56;5034843;28;20222;-65
2021/12/12 06:58:37;;;;;;;1.23;0.90;;;;;;;4.03;71.06;94147.16;5038452;28;20234;-66
2021/12/12 07:01:16;;;;;;;1.00;0.90;;;;;;;4.12;70.72;94160.19;5032794;28;20213;-65
2021/12/12 07:03:44;;;;;;;1.10;1.00;;;;;;;4.02;71.41;94159.34;5039639;28;20221;-64
2021/12/12 07:06:11;;;;;;;2.57;1.57;;;;;;;4.13;71.33;94155.81;5037779;28;20225;-65
2021/12/12 07:08:37;;;;;;;6.17;1.70;;;;;;;4.19;70.57;94176.06;5033929;28;20312;-67
2021/12/12 07:11:05;;;;;;;1.53;1.00;;;;;;;4.25;70.26;94178.16;5030962;28;20241;-66
2021/12/12 07:13:32;;;;;;;1.50;1.37;;;;;;;4.03;69.63;94178.38;5035645;28;20237;-64
2021/12/12 07:16:01;;;;;;;2.07;1.20;;;;;;;3.90;71.64;94166.44;5035280;28;20210;-65
2021/12/12 07:18:31;;;;;;;1.60;1.43;;;;;;;4.04;71.00;94177.44;5036656;28;20242;-63
2021/12/12 07:21:02;;;;;;;1.77;1.57;;;;;;;4.33;70.26;94178.31;5036999;28;20226;-64
2021/12/12 07:23:29;;;;;;;1.87;1.77;;;;;;;4.29;69.46;94176.91;5034665;28;20222;-66
2021/12/12 07:25:57;;;;;;;2.00;1.77;;;;;;;4.05;71.22;94177.28;5031271;28;20230;-64
2021/12/12 07:28:26;;;;;;;2.30;2.10;;;;;;;4.04;71.52;94187.84;5037302;28;20198;-65
2021/12/12 07:30:52;;;;;;;2.17;1.97;;;;;;;4.00;71.40;94192.44;5035438;28;20281;-64
2021/12/12 07:33:18;;;;;;;4.07;2.10;;;;;;;3.91;71.65;94207.09;5026803;28;20302;-65
2021/12/12 07:35:44;;;;;;;2.50;2.30;;;;;;;3.66;72.34;94236.09;5041870;28;20221;-65
2021/12/12 07:38:14;;;;;;;2.00;1.80;;;;;;;3.70;73.23;94234.91;5038131;28;20201;-66
2021/12/12 07:40:43;;;;;;;2.40;2.20;;;;;;;3.82;72.62;94241.66;5032475;28;20213;-65
2021/12/12 07:43:09;;;;;;;2.30;2.10;;;;;;;3.79;72.80;94235.91;5035293;28;20233;-65
2021/12/12 07:45:36;;;;;;;2.13;1.93;;;;;;;3.93;72.76;94269.38;5041713;28;20373;-67
2021/12/12 07:48:03;;;;;;;1.93;1.67;;;;;;;3.89;71.26;94274.00;5041483;28;20214;-65
2021/12/12 07:50:30;;;;;;;2.87;1.70;;;;;;;3.67;71.84;94280.19;5040555;28;20193;-64
2021/12/12 07:52:56;;;;;;;2.43;1.93;;;;;;;3.63;71.89;94257.97;5041866;28;20240;-65
2021/12/12 07:55:22;;;;;;;2.43;2.10;;;;;;;3.50;72.62;94286.78;5033540;28;20226;-63
2021/12/12 07:57:48;;;;;;;2.47;1.77;;;;;;;3.47;72.76;94278.41;5038658;28;20265;-63
2021/12/12 08:00:23;;;;;;;3.53;2.33;;;;;;;3.63;71.88;94288.34;5036537;28;20238;-63
2021/12/12 08:02:51;;;;;;;3.07;2.10;;;;;;;3.69;72.74;94285.28;5033937;28;20276;-63
2021/12/12 08:05:18;;;;;;;3.77;2.50;;;;;;;3.81;71.91;94292.03;5033729;28;20214;-63
2021/12/12 08:07:44;;;;;;;2.63;2.10;;;;;;;3.94;71.35;94291.84;5038694;28;20260;-64
2021/12/12 08:10:13;;;;;;;2.93;2.17;;;;;;;3.86;71.29;94309.84;5035399;28;20221;-63
2021/12/12 08:12:40;;;;;;;2.37;2.13;;;;;;;3.79;71.68;94286.13;5041337;28;20298;-64
2021/12/12 08:15:08;;;;;;;2.10;1.90;;;;;;;3.78;70.98;94302.69;5036951;28;20222;-63
2021/12/12 08:17:35;;;;;;;2.00;1.80;;;;;;;3.71;71.22;94304.97;5030324;28;20210;-67
2021/12/12 08:20:03;;;;;;;2.37;1.73;;;;;;;3.85;69.63;94308.19;5038002;28;20292;-64
2021/12/12 08:22:29;;;;;;;2.30;1.87;;;;;;;3.91;70.93;94305.09;5042061;28;20218;-62
2021/12/12 08:24:57;;;;;;;2.10;1.80;;;;;;;3.89;69.27;94310.41;5035538;28;20253;-64
2021/12/12 08:27:23;;;;;;;2.30;1.80;;;;;;;3.75;70.80;94316.78;5037315;28;20231;-62
2021/12/12 08:29:49;;;;;;;2.60;1.87;;;;;;;3.73;70.36;94307.44;5034034;28;20263;-64
2021/12/12 08:32:15;;;;;;;2.30;1.93;;;;;;;3.78;70.41;94323.50;5032958;28;20210;-63
2021/12/12 08:34:41;;;;;;;3.73;2.03;;;;;;;3.81;69.70;94317.22;5038617;28;20226;-63
2021/12/12 08:37:07;;;;;;;2.17;1.97;;;;;;;3.68;69.76;94317.41;5038145;28;20222;-62
2021/12/12 08:39:35;;;;;;;2.63;2.43;;;;;;;3.71;70.67;94327.53;5038656;28;20230;-65
2021/12/12 08:42:03;;;;;;;2.40;2.20;;;;;;;3.64;71.36;94321.22;5041168;28;20225;-63
2021/12/12 08:44:30;;;;;;;2.43;2.13;;;;;;;3.64;71.29;94347.22;5041011;28;20198;-66
2021/12/12 08:46:58;;;;;;;2.37;2.00;;;;;;;3.82;71.16;94343.06;5041271;28;20201;-65
2021/12/12 08:49:34;;;;;;;2.40;2.20;;;;;;;3.87;70.03;94342.69;5043070;28;20305;-64
2021/12/12 08:52:11;;;;;;;3.00;2.20;;;;;;;3.97;70.27;94344.41;5041875;28;20213;-64
2021/12/12 08:54:39;;;;;;;2.97;2.47;;;;;;;3.86;70.23;94349.69;5033490;28;20232;-66
2021/12/12 08:57:13;;;;;;;2.70;2.50;;;;;;;3.77;69.26;94366.06;5037816;28;20248;-63
2021/12/12 08:59:45;;;;;;;3.00;2.60;;;;;;;3.75;69.66;94378.38;5041293;28;20317;-64
2021/12/12 09:02:13;;;;;;;2.43;2.23;;;;;;;3.71;68.70;94380.38;5033824;28;20222;-62
2021/12/12 09:04:42;;;;;;;2.70;2.50;;;;;;;3.85;68.17;94375.81;5035881;28;20232;-65
2021/12/12 09:07:16;;;;;;;3.17;2.43;;;;;;;3.87;68.86;94374.72;5043039;28;20234;-62
2021/12/12 09:09:51;;;;;;;2.97;2.27;;;;;;;4.04;68.55;94382.94;5040164;28;20312;-62
2021/12/12 09:12:26;;;;;;;2.60;2.37;;;;;;;3.98;68.42;94371.25;5029702;28;20248;-62
2021/12/12 09:14:58;;;;;;;3.00;2.53;;;;;;;3.93;68.94;94410.66;5039444;28;20237;-66
2021/12/12 09:17:43;;;;;;;2.47;2.27;;;;;;;3.70;68.85;94372.72;5039187;28;20206;-61
2021/12/12 09:20:17;;;;;;;2.90;2.60;;;;;;;3.81;68.91;94396.06;5038303;28;20256;-63
2021/12/12 09:22:55;;;;;;;2.60;2.40;;;;;;;3.74;69.67;94389.69;5037651;28;20290;-62
2021/12/12 09:25:53;;;;;;;3.17;2.87;;;;;;;3.70;68.94;94409.13;5055332;28;20235;-62
2021/12/12 09:28:30;;;;;;;3.17;2.80;;;;;;;3.34;70.50;94387.72;5006686;28;20271;-62
2021/12/12 09:31:02;;;;;;;3.87;3.03;;;;;;;3.52;70.56;94396.66;4999704;28;20222;-61
2021/12/12 09:33:43;;;;;;;3.50;3.20;;;;;;;3.66;71.54;94389.50;4999591;28;20215;-63
2021/12/12 09:36:14;;;;;;;3.50;3.20;;;;;;;3.66;71.27;94402.50;5020692;28;20234;-64
2021/12/12 09:38:45;;;;;;;3.70;3.40;;;;;;;3.57;71.20;94416.25;5006788;28;20222;-64
2021/12/12 09:41:50;;;;;;;3.50;3.20;;;;;;;3.58;71.23;94421.31;5003359;28;20222;-63
2021/12/12 09:44:29;;;;;;;3.80;3.30;;;;;;;3.61;70.83;94407.25;4947369;29;20291;-63
2021/12/12 09:53:03;;;;;;;3.90;3.30;;;;;;;3.75;70.41;94422.56;4959984;28;20234;-68
2021/12/12 09:55:42;;;;;;;3.50;3.20;;;;;;;3.80;69.20;94422.19;4947202;29;20329;-64
2021/12/12 09:58:34;;;;;;;3.27;2.97;;;;;;;3.66;69.80;94429.34;4948100;28;20232;-64
2021/12/12 10:01:32;;;;;;;3.30;2.80;;;;;;;3.47;70.23;94442.97;4961371;28;20253;-64
2021/12/12 10:04:22;;;;;;;3.87;3.47;;;;;;;3.28;70.45;94435.00;4944458;28;20242;-63
2021/12/12 10:07:00;;;;;;;2.70;2.50;;;;;;;3.27;69.43;94428.16;5000345;28;20232;-63
2021/12/12 10:09:36;;;;;;;2.87;2.57;;;;;;;3.29;69.43;94424.50;4984452;28;20234;-63
2021/12/12 10:12:24;;;;;;;3.23;2.93;;;;;;;3.31;69.72;94419.16;4977412;28;20221;-63
2021/12/12 10:14:57;;;;;;;3.37;3.07;;;;;;;3.42;69.49;94426.94;4993264;28;20223;-61
2021/12/12 10:17:43;;;;;;;4.20;3.80;;;;;;;3.31;69.35;94434.75;4979478;28;20208;-62
2021/12/12 10:20:11;;;;;;;3.47;2.70;;;;;;;3.17;68.79;94432.44;4985387;28;20218;-62
2021/12/12 10:22:39;;;;;;;2.43;2.23;;;;;;;3.13;69.17;94447.44;5042016;28;20221;-64
2021/12/12 10:25:10;;;;;;;2.60;2.13;;;;;;;3.17;69.20;94429.84;5038422;28;20222;-62
2021/12/12 10:28:17;;;;;;;2.10;1.90;;;;;;;3.01;69.04;94433.63;5042622;28;20328;-63
2021/12/12 10:30:49;;;;;;;2.90;2.30;;;;;;;2.85;70.91;94441.78;5036661;28;20249;-63
2021/12/12 10:33:27;;;;;;;2.73;2.23;;;;;;;2.77;70.64;94441.56;5040940;28;20239;-64
2021/12/12 10:35:59;;;;;;;3.83;3.00;;;;;;;2.76;70.49;94445.13;5042579;28;20229;-63
2021/12/12 10:38:37;;;;;;;3.30;2.90;;;;;;;2.73;71.32;94466.13;5039366;28;20278;-65
2021/12/12 10:41:21;;;;;;;3.20;2.70;;;;;;;2.67;71.80;94458.78;5043461;28;20213;-63
2021/12/12 10:44:12;;;;;;;2.30;2.10;;;;;;;2.84;70.45;94460.09;5038218;28;20285;-63
2021/12/12 10:46:49;;;;;;;1.83;1.70;;;;;;;2.64;70.70;94475.41;5038415;28;20286;-66
2021/12/12 10:49:56;;;;;;;2.83;1.60;;;;;;;2.69;71.17;94467.28;5043292;28;20209;-63
2021/12/12 10:53:00;;;;;;;1.57;1.47;;;;;;;2.72;71.01;94474.03;5043942;28;20225;-65
2021/12/12 10:55:36;;;;;;;1.70;1.60;;;;;;;2.80;71.12;94453.47;4947592;29;20228;-63
2021/12/12 10:58:16;;;;;;;1.87;1.70;;;;;;;2.83;71.43;94455.84;4941677;29;20240;-63
2021/12/12 11:00:46;;;;;;;2.10;1.90;;;;;;;2.85;72.44;94459.97;4947845;28;20236;-65
2021/12/12 11:03:31;;;;;;;2.80;2.27;;;;;;;2.82;71.80;94470.59;4961442;28;20268;-64
2021/12/12 11:06:16;;;;;;;2.43;2.23;;;;;;;2.85;72.11;94465.16;4964241;28;20231;-63
2021/12/12 11:08:57;;;;;;;2.43;2.00;;;;;;;3.00;71.52;94476.16;4963124;28;20247;-64
2021/12/12 11:11:39;;;;;;;2.60;2.00;;;;;;;3.05;71.58;94468.81;4962363;28;20199;-63
2021/12/12 11:14:19;;;;;;;2.40;2.10;;;;;;;3.17;71.33;94474.00;4947821;29;20215;-67
2021/12/12 11:17:19;;;;;;;2.00;1.80;;;;;;;3.16;71.02;94473.19;4954418;29;20254;-63
2021/12/12 11:20:04;;;;;;;2.97;2.67;;;;;;;3.14;70.93;94476.84;4961251;28;20251;-65
2021/12/12 11:22:36;;;;;;;2.13;1.93;;;;;;;2.96;71.15;94484.28;4962027;28;20274;-65
2021/12/12 11:25:11;;;;;;;2.10;1.90;;;;;;;2.90;71.54;94480.41;4942958;29;20235;-65
2021/12/12 11:27:43;;;;;;;2.30;2.10;;;;;;;2.88;72.19;94485.69;4963768;28;20224;-65
2021/12/12 11:30:32;;;;;;;2.80;2.03;;;;;;;2.87;72.56;94478.03;4945662;29;20217;-63
2021/12/12 11:33:00;;;;;;;2.40;2.20;;;;;;;2.64;72.54;94477.19;4955000;28;20332;-63
2021/12/12 11:35:29;;;;;;;2.13;1.90;;;;;;;2.59;72.79;94485.34;4948914;28;20212;-63
2021/12/12 11:38:11;;;;;;;2.20;2.00;;;;;;;2.51;73.04;94481.66;4943024;29;20236;-64
2021/12/12 11:40:43;;;;;;;2.30;2.07;;;;;;;2.09;74.52;94464.03;4948861;28;20213;-64
2021/12/12 11:43:24;;;;;;;2.80;2.47;;;;;;;2.23;75.27;94473.38;4961738;28;20228;-63
2021/12/12 11:46:00;;;;;;;2.57;2.37;;;;;;;2.29;75.12;94470.31;4945510;29;20239;-64
2021/12/12 11:48:47;;;;;;;2.27;2.10;;;;;;;2.37;74.24;94469.75;4956359;28;20247;-64
2021/12/12 11:51:17;;;;;;;2.40;2.20;;;;;;;2.35;74.11;94466.44;4962762;28;20235;-64
2021/12/12 11:53:53;;;;;;;2.40;2.20;;;;;;;2.28;74.11;94476.44;4943309;28;20233;-63
2021/12/12 11:56:27;;;;;;;2.40;2.20;;;;;;;2.32;74.21;94477.03;4948037;29;20223;-65
2021/12/12 11:59:04;;;;;;;2.27;2.07;;;;;;;2.35;74.86;94476.81;4964575;28;20251;-61
2021/12/12 12:01:51;;;;;;;2.80;2.47;;;;;;;2.39;74.21;94479.06;4956337;28;20256;-61
2021/12/12 12:04:53;;;;;;;2.97;2.77;;;;;;;2.33;74.68;94489.09;4945300;29;20254;-62
2021/12/12 12:07:43;;;;;;;2.70;2.33;;;;;;;2.45;73.39;94480.38;4954591;28;20244;-61
2021/12/12 12:10:09;;;;;;;3.63;2.90;;;;;;;2.46;73.45;94479.44;4993804;28;20223;-61
2021/12/12 12:13:30;;;;;;;2.60;2.40;;;;;;;2.50;73.09;94488.63;5038513;28;20220;-63
2021/12/12 12:16:08;;;;;;;2.50;2.30;;;;;;;2.52;73.17;94494.53;4950943;28;20263;-61
2021/12/12 12:18:48;;;;;;;3.27;2.97;;;;;;;2.50;73.03;94501.59;4956146;28;20251;-61
2021/12/12 12:21:33;;;;;;;2.63;2.43;;;;;;;2.35;73.98;94506.19;4959658;28;20311;-62
2021/12/12 12:24:14;;;;;;;3.20;2.90;;;;;;;2.19;74.41;94503.91;4955767;28;20220;-62
2021/12/12 12:27:03;;;;;;;3.50;3.20;;;;;;;2.32;74.46;94508.16;4937357;28;20212;-61
2021/12/12 12:29:32;;;;;;;3.90;2.70;;;;;;;2.34;73.69;94514.06;4941791;29;20213;-61
2021/12/12 12:32:26;;;;;;;3.70;3.30;;;;;;;2.37;73.11;94504.28;4950259;28;20306;-64
2021/12/12 12:35:19;;;;;;;3.63;2.67;;;;;;;2.20;73.36;94510.75;4938245;28;20216;-62